This is the latest recevied weather packets stored in our database for station/object KB1JL-13. If no packets are shown the sender has not sent any weather packets the latest 1 day(s).
| Time | Temp. | Humidity | Pressure | Rain* | Wind** | Luminosity | Snow |
|---|---|---|---|---|---|---|---|
| 1778002670 | 22.78° C | 61% | 1021.2 hPa | 0 mm | 1.79 m/s, 231° | 647 W/m² | - |
| 1778002367 | 22.78° C | 61% | 1021.2 hPa | 0 mm | 4.02 m/s, 187° | 655 W/m² | - |
| 1778002064 | 22.22° C | 62% | 1021.6 hPa | 0 mm | 1.34 m/s, 207° | 638 W/m² | - |
| 1778001761 | 22.22° C | 65% | 1021.2 hPa | 0 mm | 0 m/s | 645 W/m² | - |
| 1778001461 | 22.22° C | 62% | 1021.2 hPa | 0 mm | 5.81 m/s, 190° | 649 W/m² | - |
| 1778001158 | 22.22° C | 62% | 1021.6 hPa | 0 mm | 1.34 m/s, 175° | 661 W/m² | - |
| 1778000854 | 21.67° C | 63% | 1021.2 hPa | 0 mm | 1.34 m/s, 208° | 647 W/m² | - |
| 1778000552 | 22.22° C | 65% | 1021.2 hPa | 0 mm | 1.79 m/s, 171° | 645 W/m² | - |
| 1778000247 | 22.22° C | 64% | 1021.2 hPa | 0 mm | 0.45 m/s, 127° | 638 W/m² | - |
| 1777999943 | 22.22° C | 64% | 1021.6 hPa | 0 mm | 0 m/s | 637 W/m² | - |
| 1777999639 | 22.22° C | 67% | 1021.6 hPa | 0 mm | 0 m/s | 634 W/m² | - |
| 1777999336 | 21.67° C | 64% | 1021.9 hPa | 0 mm | 0.89 m/s, 201° | 649 W/m² | - |
| 1777999034 | 21.67° C | 64% | 1022.2 hPa | 0 mm | 0 m/s | 658 W/m² | - |
| 1777998732 | 21.67° C | 67% | 1021.9 hPa | 0 mm | 0 m/s | 662 W/m² | - |
| 1777998429 | 21.67° C | 65% | 1021.9 hPa | 0 mm | 3.58 m/s, 162° | 669 W/m² | - |
| 1777998126 | 21.11° C | 66% | 1022.2 hPa | 0 mm | 3.13 m/s, 202° | 659 W/m² | - |
| 1777997823 | 21.67° C | 65% | 1021.9 hPa | 0 mm | 2.24 m/s, 179° | 638 W/m² | - |
| 1777997521 | 21.11° C | 66% | 1022.2 hPa | 0 mm | 1.34 m/s, 196° | 624 W/m² | - |
| 1777997218 | 21.11° C | 66% | 1022.2 hPa | 0 mm | 2.24 m/s, 202° | 615 W/m² | - |
| 1777996916 | 20.56° C | 69% | 1022.2 hPa | 0 mm | 0.45 m/s, 191° | 618 W/m² | - |
| 1777996612 | 20.56° C | 67% | 1022.2 hPa | 0 mm | 1.79 m/s, 206° | 646 W/m² | - |
| 1777996308 | 20.56° C | 67% | 1021.9 hPa | 0 mm | 3.13 m/s, 207° | 702 W/m² | - |
| 1777996004 | 20.56° C | 68% | 1022.2 hPa | 0 mm | 0 m/s | 678 W/m² | - |
| 1777995700 | 20.56° C | 67% | 1022.6 hPa | 0 mm | 0 m/s | 672 W/m² | - |
| 1777995398 | 20.56° C | 69% | 1022.6 hPa | 0 mm | 0 m/s | 683 W/m² | - |
* Rain latest hour (hover to see other rain measurements)
** Current wind speed in m/s (hover to see current wind gust speed)